createdAt,value
2022-08-19T04:03:00.556Z,99.90
2022-08-19T04:13:09.491Z,99.90
2022-08-19T04:15:41.450Z,99.90
2022-08-19T04:18:14.533Z,99.90
2022-08-19T04:20:46.962Z,99.90
2022-08-19T04:23:18.628Z,99.90
2022-08-19T04:25:50.312Z,99.90
2022-08-19T04:28:22.000Z,99.90
2022-08-19T04:30:54.605Z,99.90
2022-08-19T04:33:28.731Z,99.90
2022-08-19T04:36:00.494Z,99.90
2022-08-19T04:38:32.162Z,99.90
2022-08-19T04:41:04.075Z,99.90
2022-08-19T04:43:36.492Z,99.90
2022-08-19T04:46:08.502Z,99.90
2022-08-19T04:48:49.164Z,99.90
2022-08-19T04:51:21.227Z,99.90
2022-08-19T04:53:52.948Z,99.90
2022-08-19T04:56:24.611Z,99.90
2022-08-19T04:58:56.643Z,99.90
2022-08-19T05:01:29.450Z,99.90
2022-08-19T05:04:04.560Z,99.90
2022-08-19T05:06:36.437Z,99.90
2022-08-19T05:09:08.108Z,99.90
2022-08-19T05:11:39.752Z,99.90
2022-08-19T05:14:11.480Z,99.90
2022-08-19T05:16:43.135Z,99.90
2022-08-19T05:19:17.191Z,99.90
2022-08-19T05:21:48.880Z,99.90
2022-08-19T05:24:20.816Z,99.90
2022-08-19T05:26:52.713Z,99.90
2022-08-19T05:29:25.862Z,99.90
2022-08-19T05:31:57.778Z,99.90
2022-08-19T05:34:30.810Z,99.90
2022-08-19T05:37:02.830Z,99.90
2022-08-19T05:39:35.671Z,99.90
2022-08-19T05:42:08.445Z,99.90
2022-08-19T05:47:13.942Z,99.90
2022-08-19T05:49:47.044Z,99.90
2022-08-19T05:52:19.313Z,99.90
2022-08-19T05:54:51.645Z,99.90
2022-08-19T05:57:23.432Z,99.90
2022-08-19T05:59:58.081Z,99.90
2022-08-19T06:02:30.272Z,99.90
2022-08-19T06:05:03.561Z,99.90
2022-08-19T06:10:12.355Z,99.90
2022-08-19T06:12:44.012Z,99.90
2022-08-19T06:15:15.744Z,99.90
2022-08-19T06:17:47.423Z,99.90
2022-08-19T06:20:39.885Z,60.70
2022-08-19T06:23:12.218Z,1.00
2022-08-19T06:25:48.818Z,1.00
2022-08-19T06:28:20.852Z,1.00
2022-08-19T06:30:52.708Z,99.90
2022-08-19T06:33:24.366Z,99.90
2022-08-19T06:35:57.375Z,99.90
2022-08-19T06:38:29.044Z,1.00
2022-08-19T06:41:07.433Z,1.00
2022-08-19T06:43:41.214Z,99.90
2022-08-19T06:46:14.694Z,99.90
2022-08-19T06:48:46.726Z,1.00
2022-08-19T06:51:19.915Z,1.00
2022-08-19T06:53:52.515Z,99.90
2022-08-19T06:56:27.175Z,99.90
2022-08-19T06:58:59.138Z,99.90
2022-08-19T07:01:30.914Z,99.90
2022-08-19T07:04:02.685Z,1.00
2022-08-19T07:06:44.086Z,1.00
2022-08-19T07:09:18.333Z,1.00
2022-08-19T07:14:26.593Z,1.00
2022-08-19T07:32:28.141Z,1.00
2022-08-19T07:34:59.999Z,3.70
2022-08-19T07:37:33.575Z,1.00
2022-08-19T07:40:06.413Z,1.00
2022-08-19T07:42:38.238Z,1.00
2022-08-19T07:45:10.412Z,99.90
2022-08-19T07:47:48.274Z,99.90
2022-08-19T07:50:22.497Z,1.00
2022-08-19T07:52:55.764Z,99.90
2022-08-19T07:55:42.781Z,1.00
2022-08-19T07:58:16.236Z,1.00
2022-08-19T08:00:49.354Z,1.00
2022-08-19T08:03:21.670Z,99.90
2022-08-19T08:05:53.310Z,1.00
2022-08-19T08:08:27.704Z,99.90
2022-08-19T08:10:59.593Z,76.20
2022-08-19T08:13:31.273Z,1.00
2022-08-19T08:16:03.748Z,99.10
2022-08-19T08:18:35.507Z,99.90
2022-08-19T08:21:07.158Z,1.00
2022-08-19T08:23:40.211Z,1.00
2022-08-19T08:26:11.912Z,1.00
2022-08-19T08:28:47.726Z,1.00
2022-08-19T08:31:19.799Z,1.00
2022-08-19T08:33:51.888Z,99.90
2022-08-19T08:36:23.542Z,1.00
2022-08-19T08:41:35.899Z,1.00
2022-08-19T08:44:07.555Z,1.00
2022-08-19T08:46:40.431Z,99.90
2022-08-19T08:49:19.366Z,1.00
2022-08-19T08:52:00.054Z,99.90
2022-08-19T08:54:36.206Z,1.00
2022-08-19T08:57:22.453Z,1.00
2022-08-19T08:59:54.130Z,1.00
2022-08-19T09:02:25.823Z,99.90
2022-08-19T09:04:57.489Z,99.90
2022-08-19T09:07:39.809Z,99.90
2022-08-19T09:10:17.676Z,1.00
2022-08-19T09:12:54.646Z,1.00
2022-08-19T09:15:33.550Z,1.00
2022-08-19T09:18:08.329Z,99.90
2022-08-19T09:20:50.667Z,99.90
2022-08-19T09:26:00.147Z,99.90
2022-08-19T09:28:31.860Z,99.90
2022-08-19T09:31:04.106Z,99.90
2022-08-19T09:36:09.278Z,1.00
2022-08-19T09:38:43.633Z,1.00
2022-08-19T09:41:18.319Z,1.00
2022-08-19T09:43:51.716Z,99.90
2022-08-19T09:46:25.808Z,99.90
2022-08-19T09:48:58.603Z,99.90
2022-08-19T09:51:37.706Z,61.80
2022-08-19T09:54:11.583Z,26.00
2022-08-19T09:56:44.588Z,1.00
2022-08-19T10:01:48.323Z,1.00
2022-08-19T10:04:22.176Z,1.00
2022-08-19T10:06:56.595Z,1.00
2022-08-19T10:09:34.494Z,1.00
2022-08-19T10:12:11.115Z,1.00
2022-08-19T10:14:43.014Z,1.00
2022-08-19T10:19:55.179Z,1.00
2022-08-19T10:22:27.102Z,1.00
2022-08-19T10:24:58.756Z,1.00
2022-08-19T10:27:32.164Z,1.00
2022-08-19T10:30:04.770Z,1.00
2022-08-19T10:32:46.289Z,1.00
2022-08-19T10:35:22.049Z,1.00
2022-08-19T10:37:57.531Z,1.00
2022-08-19T10:40:33.759Z,1.00
2022-08-19T10:43:06.808Z,27.90
2022-08-19T10:45:38.462Z,99.90
2022-08-19T10:48:24.381Z,99.90
2022-08-19T10:50:56.956Z,99.90
2022-08-19T10:53:28.663Z,99.90
2022-08-19T10:56:00.351Z,99.90
2022-08-19T10:58:33.386Z,99.90
2022-08-19T11:01:05.402Z,99.90
2022-08-19T11:03:37.138Z,99.90
2022-08-19T11:06:09.185Z,99.90
2022-08-19T11:08:40.898Z,99.90
2022-08-19T11:11:12.838Z,99.90
2022-08-19T11:13:45.893Z,99.90
2022-08-19T11:16:19.167Z,99.90
2022-08-19T11:18:51.764Z,99.90
2022-08-19T11:21:24.410Z,86.30
2022-08-19T11:23:57.309Z,67.90
2022-08-19T11:26:30.031Z,41.20
2022-08-19T11:29:03.287Z,41.50
2022-08-19T11:31:35.573Z,53.30
2022-08-19T11:34:08.756Z,83.70
2022-08-19T11:36:41.320Z,85.30
2022-08-19T11:39:13.990Z,99.90
2022-08-19T11:41:45.772Z,99.90
2022-08-19T11:44:18.818Z,99.90
2022-08-19T11:46:50.544Z,99.90
2022-08-19T11:49:22.238Z,99.90
2022-08-19T11:51:53.936Z,99.90
2022-08-19T11:54:25.685Z,99.90
2022-08-19T11:56:57.382Z,99.90
2022-08-19T11:59:30.399Z,99.90
2022-08-19T12:02:02.082Z,99.90
2022-08-19T12:04:33.764Z,99.90
2022-08-19T12:07:05.496Z,92.50
2022-08-19T12:09:37.253Z,99.70
2022-08-19T12:12:13.877Z,90.60
2022-08-19T12:14:46.905Z,79.10
2022-08-19T12:17:18.646Z,71.60
2022-08-19T12:19:50.422Z,62.50
2022-08-19T12:22:22.134Z,59.10
2022-08-19T12:24:53.796Z,43.70
2022-08-19T12:27:40.371Z,54.00
2022-08-19T12:30:14.837Z,33.30
2022-08-19T12:32:46.520Z,35.00
2022-08-19T12:35:18.405Z,3.40
2022-08-19T12:37:56.600Z,28.90
2022-08-19T12:40:29.176Z,53.80
2022-08-19T12:43:00.875Z,90.30
2022-08-19T12:45:33.973Z,23.80
2022-08-19T12:48:33.707Z,30.80
2022-08-19T12:50:58.189Z,64.30
2022-08-19T12:53:29.968Z,60.10
2022-08-19T12:56:01.708Z,42.80
2022-08-19T12:58:33.384Z,10.20
2022-08-19T13:01:10.570Z,1.00
2022-08-19T13:03:42.444Z,1.00
2022-08-19T13:06:14.149Z,1.00
2022-08-19T13:08:50.690Z,1.00
2022-08-19T13:11:22.394Z,1.00
2022-08-19T13:13:54.189Z,1.00
2022-08-19T13:16:27.301Z,1.00
2022-08-19T13:18:59.003Z,1.00
2022-08-19T13:21:30.673Z,1.00
2022-08-19T13:24:02.540Z,1.00
2022-08-19T13:26:34.216Z,1.00
2022-08-19T13:29:05.928Z,1.00
2022-08-19T13:31:40.943Z,1.00
2022-08-19T13:34:12.652Z,1.00
2022-08-19T13:36:44.369Z,1.00
2022-08-19T13:39:16.036Z,1.00
2022-08-19T13:41:47.751Z,1.00
2022-08-19T13:44:19.532Z,1.00
2022-08-19T13:46:52.596Z,1.00
2022-08-19T13:49:25.979Z,1.00
2022-08-19T13:51:57.750Z,1.00
2022-08-19T13:54:29.431Z,1.00
2022-08-19T13:57:01.118Z,1.00
2022-08-19T13:59:32.805Z,1.00
2022-08-19T14:02:05.857Z,1.00
2022-08-19T14:04:37.615Z,1.00
2022-08-19T14:07:09.299Z,1.00
2022-08-19T14:09:40.989Z,1.00
2022-08-19T14:12:12.678Z,1.00
2022-08-19T14:14:44.357Z,1.00
2022-08-19T14:17:17.429Z,1.00
2022-08-19T14:19:49.107Z,1.00
2022-08-19T14:22:22.143Z,1.00
2022-08-19T14:24:54.225Z,1.00
2022-08-19T14:27:25.912Z,1.00
2022-08-19T14:29:57.590Z,1.00
2022-08-19T14:32:30.624Z,1.00
2022-08-19T14:35:02.464Z,1.00
2022-08-19T14:37:34.195Z,1.00
2022-08-19T14:40:18.184Z,1.00
2022-08-19T14:42:49.912Z,1.00
2022-08-19T14:45:21.717Z,1.00
2022-08-19T14:47:54.899Z,1.00
2022-08-19T14:50:28.334Z,1.00
2022-08-19T14:53:00.392Z,1.00
2022-08-19T14:55:32.159Z,1.00
2022-08-19T14:58:05.039Z,1.00
2022-08-19T15:00:40.662Z,1.00
2022-08-19T15:03:13.695Z,1.00
2022-08-19T15:05:45.360Z,1.00
2022-08-19T15:08:17.069Z,1.00
2022-08-19T15:10:48.751Z,1.00
2022-08-19T15:13:20.440Z,1.00
2022-08-19T15:15:52.116Z,1.00
2022-08-19T15:18:25.164Z,1.00
2022-08-19T15:20:56.841Z,1.00
2022-08-19T15:23:28.673Z,1.00
2022-08-19T15:26:00.344Z,1.00
2022-08-19T15:28:32.042Z,1.00
2022-08-19T15:31:03.763Z,1.00
2022-08-19T15:33:37.364Z,1.00
2022-08-19T15:36:09.176Z,1.00
2022-08-19T15:38:45.915Z,1.00
2022-08-19T15:41:20.489Z,1.00
2022-08-19T15:43:53.386Z,1.00
2022-08-19T15:46:26.465Z,1.00
2022-08-19T15:48:59.787Z,1.00
2022-08-19T15:51:33.173Z,1.00
2022-08-19T15:54:06.297Z,1.00
2022-08-19T15:56:37.994Z,1.00
2022-08-19T15:59:09.693Z,1.00
2022-08-19T16:01:41.421Z,1.00
2022-08-19T16:04:15.671Z,1.00
2022-08-19T16:06:49.240Z,1.00
2022-08-19T16:09:26.643Z,1.00
2022-08-19T16:12:02.127Z,1.00
2022-08-19T16:14:35.165Z,7.70
2022-08-19T16:17:06.843Z,21.70
2022-08-19T16:19:39.891Z,43.50
2022-08-19T16:22:11.571Z,58.40
2022-08-19T16:24:43.345Z,81.70
2022-08-19T16:27:15.024Z,92.50
2022-08-19T16:29:46.710Z,99.40
2022-08-19T16:32:18.412Z,91.60
2022-08-19T16:34:51.444Z,81.40
2022-08-19T16:37:23.123Z,76.70
2022-08-19T16:39:55.346Z,76.70
2022-08-19T16:42:27.107Z,57.80
2022-08-19T16:44:58.783Z,58.90
2022-08-19T16:47:30.464Z,54.40
2022-08-19T16:50:03.938Z,64.30
2022-08-19T16:52:35.620Z,95.30
2022-08-19T16:55:07.604Z,99.90
2022-08-19T16:57:39.296Z,99.90
2022-08-19T17:00:11.825Z,99.90
2022-08-19T17:02:43.491Z,99.90
2022-08-19T17:05:16.648Z,99.90
2022-08-19T17:07:48.321Z,99.90
2022-08-19T17:10:20.131Z,99.90
2022-08-19T17:12:51.806Z,99.90
2022-08-19T17:15:23.489Z,99.90
2022-08-19T17:17:59.082Z,99.90
2022-08-19T17:20:32.371Z,99.90
2022-08-19T17:23:04.418Z,99.90
2022-08-19T17:25:36.302Z,99.90
2022-08-19T17:28:08.273Z,99.90
2022-08-19T17:30:39.948Z,99.90
2022-08-19T17:33:11.699Z,99.90
2022-08-19T17:35:44.849Z,1.00
2022-08-19T17:38:17.937Z,1.00
2022-08-19T17:40:49.848Z,1.00
2022-08-19T17:43:32.487Z,1.00
2022-08-19T17:46:05.899Z,1.00
2022-08-19T17:48:37.601Z,12.30
2022-08-19T17:51:17.056Z,17.90
2022-08-19T17:53:53.797Z,99.90
2022-08-19T17:56:25.571Z,99.90
2022-08-19T17:59:00.789Z,99.90
2022-08-19T18:01:52.741Z,99.90
2022-08-19T18:04:25.624Z,99.90
2022-08-19T18:06:58.679Z,99.90
2022-08-19T18:09:42.346Z,99.90
2022-08-19T18:12:14.621Z,99.90
2022-08-19T18:14:46.321Z,99.90
2022-08-19T18:17:18.189Z,99.90
2022-08-19T18:19:49.880Z,1.00
2022-08-19T18:22:26.033Z,1.00
2022-08-19T18:24:57.964Z,1.00
2022-08-19T18:27:29.680Z,1.00
2022-08-19T18:30:01.468Z,1.00
2022-08-19T18:32:33.355Z,1.00
2022-08-19T18:35:06.639Z,1.00
2022-08-19T18:37:39.682Z,32.80
2022-08-19T18:40:14.201Z,99.90
2022-08-19T18:42:46.214Z,99.90
2022-08-19T18:45:17.913Z,99.90
2022-08-19T18:47:49.600Z,1.00
2022-08-19T18:50:21.297Z,1.00
2022-08-19T18:52:54.328Z,1.00
2022-08-19T18:55:26.044Z,99.90
2022-08-19T18:57:57.716Z,1.00
2022-08-19T19:00:29.428Z,1.00
2022-08-19T19:03:01.117Z,1.00
2022-08-19T19:05:32.825Z,99.90
2022-08-19T19:08:05.931Z,99.90
2022-08-19T19:10:37.627Z,99.90
2022-08-19T19:13:09.291Z,1.00
2022-08-19T19:15:41.625Z,1.00
2022-08-19T19:18:13.300Z,1.00
2022-08-19T19:20:45.001Z,99.90
2022-08-19T19:23:18.029Z,99.90
2022-08-19T19:25:51.105Z,1.00
2022-08-19T19:28:23.233Z,99.90
2022-08-19T19:30:55.669Z,1.00
2022-08-19T19:33:27.409Z,1.00
2022-08-19T19:35:59.129Z,1.00
2022-08-19T19:38:32.161Z,1.00
2022-08-19T19:41:03.877Z,1.00
2022-08-19T19:43:40.767Z,92.80
2022-08-19T19:46:12.816Z,99.90
2022-08-19T19:48:44.538Z,99.90
2022-08-19T19:51:16.304Z,99.90
2022-08-19T19:53:49.864Z,99.90
2022-08-19T19:56:22.138Z,99.90
2022-08-19T19:58:53.858Z,99.90
2022-08-19T20:03:57.958Z,99.90
2022-08-19T20:06:29.630Z,99.90
2022-08-19T20:09:02.709Z,99.90
2022-08-19T20:11:36.285Z,99.90
2022-08-19T20:14:09.312Z,99.90
2022-08-19T20:16:41.241Z,99.90
2022-08-19T20:19:14.485Z,99.90
2022-08-19T20:21:51.096Z,99.90
2022-08-19T20:24:25.349Z,99.90
2022-08-19T20:26:57.032Z,99.90
2022-08-19T20:29:39.527Z,99.90
2022-08-19T20:32:13.141Z,99.90
2022-08-19T20:34:44.851Z,99.90
2022-08-19T20:37:16.515Z,99.90
2022-08-19T20:39:49.611Z,99.90
2022-08-19T20:42:21.325Z,99.90
2022-08-19T20:44:53.005Z,99.90
2022-08-19T20:47:24.680Z,99.90
2022-08-19T20:49:56.370Z,99.90
2022-08-19T20:52:28.035Z,99.90
2022-08-19T20:55:01.105Z,99.90
2022-08-19T20:57:32.780Z,99.90
2022-08-19T21:00:06.169Z,99.90
2022-08-19T21:02:37.903Z,99.90
2022-08-19T21:05:09.689Z,99.90
2022-08-19T21:07:41.365Z,99.90
2022-08-19T21:10:14.393Z,99.90
2022-08-19T21:12:46.060Z,99.90
2022-08-19T21:15:17.789Z,99.90
2022-08-19T21:17:49.532Z,99.90
2022-08-19T21:20:21.315Z,99.90
2022-08-19T21:22:52.993Z,99.90
2022-08-19T21:27:58.206Z,99.90
2022-08-19T21:33:02.060Z,99.90
2022-08-19T21:35:33.884Z,99.90
2022-08-19T21:38:05.564Z,99.90
2022-08-19T21:40:38.597Z,99.90
2022-08-19T21:43:10.266Z,99.90
2022-08-19T21:45:41.998Z,99.90
2022-08-19T21:50:48.292Z,99.90
2022-08-19T21:55:56.159Z,99.90
2022-08-19T21:58:28.221Z,99.90
